sensor_id;sensor_type;location;lat;lon;timestamp;P1;durP1;ratioP1;P2;durP2;ratioP2
66139;SDS011;52945;51.908;8.364;2023-04-24T00:02:39;1.35;;;0.50;;
66139;SDS011;52945;51.908;8.364;2023-04-24T00:08:47;0.60;;;0.45;;
66139;SDS011;52945;51.908;8.364;2023-04-24T00:11:48;0.40;;;0.40;;
66139;SDS011;52945;51.908;8.364;2023-04-24T00:14:48;0.40;;;0.40;;
66139;SDS011;52945;51.908;8.364;2023-04-24T00:17:49;0.47;;;0.47;;
66139;SDS011;52945;51.908;8.364;2023-04-24T00:20:50;0.30;;;0.30;;
66139;SDS011;52945;51.908;8.364;2023-04-24T00:23:50;0.52;;;0.52;;
66139;SDS011;52945;51.908;8.364;2023-04-24T00:26:51;0.43;;;0.40;;
66139;SDS011;52945;51.908;8.364;2023-04-24T00:29:52;0.50;;;0.50;;
66139;SDS011;52945;51.908;8.364;2023-04-24T00:32:52;1.00;;;0.40;;
66139;SDS011;52945;51.908;8.364;2023-04-24T00:35:53;0.68;;;0.50;;
66139;SDS011;52945;51.908;8.364;2023-04-24T00:38:54;0.75;;;0.47;;
66139;SDS011;52945;51.908;8.364;2023-04-24T00:41:55;0.52;;;0.52;;
66139;SDS011;52945;51.908;8.364;2023-04-24T00:44:56;0.68;;;0.68;;
66139;SDS011;52945;51.908;8.364;2023-04-24T00:47:57;0.70;;;0.70;;
66139;SDS011;52945;51.908;8.364;2023-04-24T00:50:59;0.60;;;0.60;;
66139;SDS011;52945;51.908;8.364;2023-04-24T00:54:00;0.60;;;0.40;;
66139;SDS011;52945;51.908;8.364;2023-04-24T01:00:05;0.60;;;0.60;;
66139;SDS011;52945;51.908;8.364;2023-04-24T01:03:10;0.60;;;0.60;;
66139;SDS011;52945;51.908;8.364;2023-04-24T01:06:11;0.40;;;0.40;;
66139;SDS011;52945;51.908;8.364;2023-04-24T01:09:12;1.35;;;0.55;;
66139;SDS011;52945;51.908;8.364;2023-04-24T01:12:14;1.85;;;0.88;;
66139;SDS011;52945;51.908;8.364;2023-04-24T01:15:15;1.65;;;0.60;;
66139;SDS011;52945;51.908;8.364;2023-04-24T01:18:16;0.68;;;0.50;;
66139;SDS011;52945;51.908;8.364;2023-04-24T01:21:16;0.50;;;0.50;;
66139;SDS011;52945;51.908;8.364;2023-04-24T01:24:19;0.70;;;0.70;;
66139;SDS011;52945;51.908;8.364;2023-04-24T01:30:20;0.73;;;0.50;;
66139;SDS011;52945;51.908;8.364;2023-04-24T01:33:21;1.65;;;0.82;;
66139;SDS011;52945;51.908;8.364;2023-04-24T01:39:23;1.00;;;0.60;;
66139;SDS011;52945;51.908;8.364;2023-04-24T01:42:25;0.88;;;0.63;;
66139;SDS011;52945;51.908;8.364;2023-04-24T01:45:26;0.47;;;0.47;;
66139;SDS011;52945;51.908;8.364;2023-04-24T01:48:27;0.68;;;0.68;;
66139;SDS011;52945;51.908;8.364;2023-04-24T01:51:28;0.85;;;0.80;;
66139;SDS011;52945;51.908;8.364;2023-04-24T01:54:29;1.52;;;0.70;;
66139;SDS011;52945;51.908;8.364;2023-04-24T01:57:31;0.70;;;0.57;;
66139;SDS011;52945;51.908;8.364;2023-04-24T02:00:32;0.70;;;0.70;;
66139;SDS011;52945;51.908;8.364;2023-04-24T02:03:33;0.50;;;0.50;;
66139;SDS011;52945;51.908;8.364;2023-04-24T02:06:33;1.17;;;0.73;;
66139;SDS011;52945;51.908;8.364;2023-04-24T02:09:34;0.70;;;0.68;;
66139;SDS011;52945;51.908;8.364;2023-04-24T02:12:35;0.70;;;0.68;;
66139;SDS011;52945;51.908;8.364;2023-04-24T02:15:36;2.58;;;0.60;;
66139;SDS011;52945;51.908;8.364;2023-04-24T02:18:36;0.88;;;0.77;;
66139;SDS011;52945;51.908;8.364;2023-04-24T02:21:37;0.65;;;0.65;;
66139;SDS011;52945;51.908;8.364;2023-04-24T02:24:37;0.93;;;0.60;;
66139;SDS011;52945;51.908;8.364;2023-04-24T02:27:38;2.47;;;0.65;;
66139;SDS011;52945;51.908;8.364;2023-04-24T02:30:39;0.45;;;0.45;;
66139;SDS011;52945;51.908;8.364;2023-04-24T02:33:40;1.15;;;0.80;;
66139;SDS011;52945;51.908;8.364;2023-04-24T02:36:40;0.60;;;0.55;;
66139;SDS011;52945;51.908;8.364;2023-04-24T02:39:41;0.80;;;0.40;;
66139;SDS011;52945;51.908;8.364;2023-04-24T02:42:42;0.60;;;0.60;;
66139;SDS011;52945;51.908;8.364;2023-04-24T02:45:42;2.58;;;0.98;;
66139;SDS011;52945;51.908;8.364;2023-04-24T02:48:43;0.95;;;0.68;;
66139;SDS011;52945;51.908;8.364;2023-04-24T02:51:43;0.70;;;0.57;;
66139;SDS011;52945;51.908;8.364;2023-04-24T02:54:44;1.63;;;0.80;;
66139;SDS011;52945;51.908;8.364;2023-04-24T02:57:44;0.50;;;0.50;;
66139;SDS011;52945;51.908;8.364;2023-04-24T03:00:45;0.85;;;0.80;;
66139;SDS011;52945;51.908;8.364;2023-04-24T03:03:47;1.20;;;0.70;;
66139;SDS011;52945;51.908;8.364;2023-04-24T03:06:47;0.90;;;0.50;;
66139;SDS011;52945;51.908;8.364;2023-04-24T03:09:48;1.05;;;0.55;;
66139;SDS011;52945;51.908;8.364;2023-04-24T03:12:49;2.15;;;0.60;;
66139;SDS011;52945;51.908;8.364;2023-04-24T03:15:49;0.70;;;0.70;;
66139;SDS011;52945;51.908;8.364;2023-04-24T03:18:50;0.60;;;0.50;;
66139;SDS011;52945;51.908;8.364;2023-04-24T03:21:50;0.68;;;0.68;;
66139;SDS011;52945;51.908;8.364;2023-04-24T03:24:51;0.50;;;0.50;;
66139;SDS011;52945;51.908;8.364;2023-04-24T03:27:51;1.02;;;0.85;;
66139;SDS011;52945;51.908;8.364;2023-04-24T03:30:52;1.83;;;0.60;;
66139;SDS011;52945;51.908;8.364;2023-04-24T03:33:53;0.70;;;0.63;;
66139;SDS011;52945;51.908;8.364;2023-04-24T03:36:53;1.00;;;0.90;;
66139;SDS011;52945;51.908;8.364;2023-04-24T03:39:54;2.53;;;0.93;;
66139;SDS011;52945;51.908;8.364;2023-04-24T03:42:54;1.23;;;0.90;;
66139;SDS011;52945;51.908;8.364;2023-04-24T03:45:55;1.08;;;0.98;;
66139;SDS011;52945;51.908;8.364;2023-04-24T03:48:56;1.25;;;1.00;;
66139;SDS011;52945;51.908;8.364;2023-04-24T03:51:56;1.23;;;0.90;;
66139;SDS011;52945;51.908;8.364;2023-04-24T03:54:57;1.38;;;1.00;;
66139;SDS011;52945;51.908;8.364;2023-04-24T03:57:57;2.05;;;1.30;;
66139;SDS011;52945;51.908;8.364;2023-04-24T04:00:58;0.90;;;0.90;;
66139;SDS011;52945;51.908;8.364;2023-04-24T04:03:58;1.42;;;1.17;;
66139;SDS011;52945;51.908;8.364;2023-04-24T04:06:59;2.17;;;1.23;;
66139;SDS011;52945;51.908;8.364;2023-04-24T04:10:02;2.00;;;1.30;;
66139;SDS011;52945;51.908;8.364;2023-04-24T04:13:03;1.45;;;1.20;;
66139;SDS011;52945;51.908;8.364;2023-04-24T04:16:04;1.60;;;1.20;;
66139;SDS011;52945;51.908;8.364;2023-04-24T04:19:05;1.63;;;1.40;;
66139;SDS011;52945;51.908;8.364;2023-04-24T04:22:05;2.92;;;1.23;;
66139;SDS011;52945;51.908;8.364;2023-04-24T04:25:08;1.25;;;1.13;;
66139;SDS011;52945;51.908;8.364;2023-04-24T04:28:08;2.85;;;1.50;;
66139;SDS011;52945;51.908;8.364;2023-04-24T04:31:09;2.65;;;1.38;;
66139;SDS011;52945;51.908;8.364;2023-04-24T04:34:09;5.13;;;2.22;;
66139;SDS011;52945;51.908;8.364;2023-04-24T04:37:11;4.40;;;2.60;;
66139;SDS011;52945;51.908;8.364;2023-04-24T04:40:12;4.82;;;2.22;;
66139;SDS011;52945;51.908;8.364;2023-04-24T04:43:13;6.00;;;2.97;;
66139;SDS011;52945;51.908;8.364;2023-04-24T04:46:14;6.30;;;3.00;;
66139;SDS011;52945;51.908;8.364;2023-04-24T04:49:15;6.80;;;3.38;;
66139;SDS011;52945;51.908;8.364;2023-04-24T04:52:16;5.85;;;3.42;;
66139;SDS011;52945;51.908;8.364;2023-04-24T04:55:18;6.82;;;3.25;;
66139;SDS011;52945;51.908;8.364;2023-04-24T04:58:19;7.03;;;3.55;;
66139;SDS011;52945;51.908;8.364;2023-04-24T05:01:20;7.13;;;3.83;;
66139;SDS011;52945;51.908;8.364;2023-04-24T05:04:23;7.15;;;3.55;;
66139;SDS011;52945;51.908;8.364;2023-04-24T05:07:23;7.22;;;3.67;;
66139;SDS011;52945;51.908;8.364;2023-04-24T05:10:24;8.48;;;3.30;;
66139;SDS011;52945;51.908;8.364;2023-04-24T05:13:25;7.20;;;3.65;;
66139;SDS011;52945;51.908;8.364;2023-04-24T05:16:25;7.22;;;3.63;;
66139;SDS011;52945;51.908;8.364;2023-04-24T05:19:26;7.63;;;3.67;;
66139;SDS011;52945;51.908;8.364;2023-04-24T05:22:26;9.82;;;4.00;;
66139;SDS011;52945;51.908;8.364;2023-04-24T05:25:27;8.68;;;4.38;;
66139;SDS011;52945;51.908;8.364;2023-04-24T05:28:27;7.97;;;3.97;;
66139;SDS011;52945;51.908;8.364;2023-04-24T05:31:28;9.52;;;4.10;;
66139;SDS011;52945;51.908;8.364;2023-04-24T05:34:29;10.77;;;4.45;;
66139;SDS011;52945;51.908;8.364;2023-04-24T05:37:29;9.70;;;4.65;;
66139;SDS011;52945;51.908;8.364;2023-04-24T05:40:30;10.52;;;4.30;;
66139;SDS011;52945;51.908;8.364;2023-04-24T05:43:31;11.18;;;5.15;;
66139;SDS011;52945;51.908;8.364;2023-04-24T05:46:31;13.27;;;5.10;;
66139;SDS011;52945;51.908;8.364;2023-04-24T05:49:32;10.43;;;4.95;;
66139;SDS011;52945;51.908;8.364;2023-04-24T05:52:32;10.85;;;5.03;;
66139;SDS011;52945;51.908;8.364;2023-04-24T05:55:33;11.48;;;5.03;;
66139;SDS011;52945;51.908;8.364;2023-04-24T05:58:34;9.52;;;4.55;;
66139;SDS011;52945;51.908;8.364;2023-04-24T06:01:34;10.00;;;5.13;;
66139;SDS011;52945;51.908;8.364;2023-04-24T06:04:36;11.80;;;5.30;;
66139;SDS011;52945;51.908;8.364;2023-04-24T06:07:37;11.55;;;5.07;;
66139;SDS011;52945;51.908;8.364;2023-04-24T06:10:38;10.65;;;4.95;;
66139;SDS011;52945;51.908;8.364;2023-04-24T06:13:38;9.43;;;5.10;;
66139;SDS011;52945;51.908;8.364;2023-04-24T06:16:42;10.43;;;4.45;;
66139;SDS011;52945;51.908;8.364;2023-04-24T06:19:43;11.15;;;5.47;;
66139;SDS011;52945;51.908;8.364;2023-04-24T06:22:43;9.25;;;4.93;;
66139;SDS011;52945;51.908;8.364;2023-04-24T06:25:44;8.40;;;4.38;;
66139;SDS011;52945;51.908;8.364;2023-04-24T06:28:44;11.75;;;4.93;;
66139;SDS011;52945;51.908;8.364;2023-04-24T06:31:45;10.40;;;5.18;;
66139;SDS011;52945;51.908;8.364;2023-04-24T06:34:45;12.13;;;5.75;;
66139;SDS011;52945;51.908;8.364;2023-04-24T06:37:46;11.57;;;5.03;;
66139;SDS011;52945;51.908;8.364;2023-04-24T06:40:47;10.90;;;5.05;;
66139;SDS011;52945;51.908;8.364;2023-04-24T06:43:47;9.20;;;4.68;;
66139;SDS011;52945;51.908;8.364;2023-04-24T06:46:48;10.80;;;5.00;;
66139;SDS011;52945;51.908;8.364;2023-04-24T06:49:48;11.85;;;5.15;;
66139;SDS011;52945;51.908;8.364;2023-04-24T06:52:50;11.68;;;5.03;;
66139;SDS011;52945;51.908;8.364;2023-04-24T06:55:51;11.63;;;4.38;;
66139;SDS011;52945;51.908;8.364;2023-04-24T06:58:51;7.53;;;4.15;;
66139;SDS011;52945;51.908;8.364;2023-04-24T07:01:53;9.55;;;4.38;;
66139;SDS011;52945;51.908;8.364;2023-04-24T07:04:54;7.32;;;4.13;;
66139;SDS011;52945;51.908;8.364;2023-04-24T07:07:54;7.10;;;4.15;;
66139;SDS011;52945;51.908;8.364;2023-04-24T07:10:55;7.93;;;3.97;;
66139;SDS011;52945;51.908;8.364;2023-04-24T07:13:56;9.05;;;4.20;;
66139;SDS011;52945;51.908;8.364;2023-04-24T07:16:57;9.52;;;4.28;;
66139;SDS011;52945;51.908;8.364;2023-04-24T07:19:58;8.07;;;4.10;;
66139;SDS011;52945;51.908;8.364;2023-04-24T07:22:58;8.02;;;4.10;;
66139;SDS011;52945;51.908;8.364;2023-04-24T07:25:59;8.73;;;3.83;;
66139;SDS011;52945;51.908;8.364;2023-04-24T07:28:59;7.03;;;3.65;;
66139;SDS011;52945;51.908;8.364;2023-04-24T07:32:00;6.30;;;3.35;;
66139;SDS011;52945;51.908;8.364;2023-04-24T07:35:01;6.20;;;3.50;;
66139;SDS011;52945;51.908;8.364;2023-04-24T07:38:01;6.57;;;3.38;;
66139;SDS011;52945;51.908;8.364;2023-04-24T07:41:02;7.10;;;3.53;;
66139;SDS011;52945;51.908;8.364;2023-04-24T07:44:02;4.65;;;2.78;;
66139;SDS011;52945;51.908;8.364;2023-04-24T07:47:03;5.35;;;3.00;;
66139;SDS011;52945;51.908;8.364;2023-04-24T07:50:04;4.38;;;3.15;;
66139;SDS011;52945;51.908;8.364;2023-04-24T07:53:05;5.93;;;2.80;;
66139;SDS011;52945;51.908;8.364;2023-04-24T07:56:06;5.22;;;2.80;;
66139;SDS011;52945;51.908;8.364;2023-04-24T07:59:07;4.03;;;2.58;;
66139;SDS011;52945;51.908;8.364;2023-04-24T08:02:07;5.05;;;2.75;;
66139;SDS011;52945;51.908;8.364;2023-04-24T08:05:08;4.65;;;2.83;;
66139;SDS011;52945;51.908;8.364;2023-04-24T08:08:09;5.32;;;2.80;;
66139;SDS011;52945;51.908;8.364;2023-04-24T08:11:09;3.58;;;2.53;;
66139;SDS011;52945;51.908;8.364;2023-04-24T08:14:10;4.15;;;2.53;;
66139;SDS011;52945;51.908;8.364;2023-04-24T08:17:12;5.65;;;2.53;;
66139;SDS011;52945;51.908;8.364;2023-04-24T08:20:13;3.72;;;2.42;;
66139;SDS011;52945;51.908;8.364;2023-04-24T08:23:13;5.50;;;2.45;;
66139;SDS011;52945;51.908;8.364;2023-04-24T08:26:14;5.22;;;1.95;;
66139;SDS011;52945;51.908;8.364;2023-04-24T08:29:15;2.78;;;2.08;;
66139;SDS011;52945;51.908;8.364;2023-04-24T08:32:16;2.28;;;1.63;;
66139;SDS011;52945;51.908;8.364;2023-04-24T08:35:17;3.25;;;1.73;;
66139;SDS011;52945;51.908;8.364;2023-04-24T08:38:18;3.75;;;1.88;;
66139;SDS011;52945;51.908;8.364;2023-04-24T08:41:19;3.17;;;1.88;;
66139;SDS011;52945;51.908;8.364;2023-04-24T08:44:20;2.90;;;1.73;;
66139;SDS011;52945;51.908;8.364;2023-04-24T08:47:20;2.92;;;2.00;;
66139;SDS011;52945;51.908;8.364;2023-04-24T08:50:24;3.03;;;1.65;;
66139;SDS011;52945;51.908;8.364;2023-04-24T08:53:25;3.38;;;1.60;;
66139;SDS011;52945;51.908;8.364;2023-04-24T08:59:28;1.52;;;1.20;;
66139;SDS011;52945;51.908;8.364;2023-04-24T09:02:28;2.22;;;1.67;;
66139;SDS011;52945;51.908;8.364;2023-04-24T09:05:29;2.45;;;1.65;;
66139;SDS011;52945;51.908;8.364;2023-04-24T09:08:30;1.67;;;1.40;;
66139;SDS011;52945;51.908;8.364;2023-04-24T09:11:32;1.50;;;1.27;;
66139;SDS011;52945;51.908;8.364;2023-04-24T09:14:33;2.80;;;1.40;;
66139;SDS011;52945;51.908;8.364;2023-04-24T09:17:33;1.52;;;1.10;;
66139;SDS011;52945;51.908;8.364;2023-04-24T09:20:35;2.58;;;1.30;;
66139;SDS011;52945;51.908;8.364;2023-04-24T09:24:01;1.23;;;1.13;;
66139;SDS011;52945;51.908;8.364;2023-04-24T09:27:03;2.22;;;1.08;;
66139;SDS011;52945;51.908;8.364;2023-04-24T09:30:04;3.72;;;1.40;;
66139;SDS011;52945;51.908;8.364;2023-04-24T09:33:12;1.10;;;1.00;;
66139;SDS011;52945;51.908;8.364;2023-04-24T09:36:14;1.20;;;1.10;;
66139;SDS011;52945;51.908;8.364;2023-04-24T09:39:18;1.05;;;0.93;;
66139;SDS011;52945;51.908;8.364;2023-04-24T09:42:22;1.27;;;1.00;;
66139;SDS011;52945;51.908;8.364;2023-04-24T09:45:34;1.20;;;1.10;;
66139;SDS011;52945;51.908;8.364;2023-04-24T09:48:37;1.73;;;1.00;;
66139;SDS011;52945;51.908;8.364;2023-04-24T09:51:37;1.10;;;0.93;;
66139;SDS011;52945;51.908;8.364;2023-04-24T09:54:39;1.20;;;1.08;;
66139;SDS011;52945;51.908;8.364;2023-04-24T10:00:47;0.70;;;0.70;;
66139;SDS011;52945;51.908;8.364;2023-04-24T10:03:47;0.93;;;0.77;;
66139;SDS011;52945;51.908;8.364;2023-04-24T10:06:48;0.90;;;0.80;;
66139;SDS011;52945;51.908;8.364;2023-04-24T10:09:50;1.02;;;0.85;;
66139;SDS011;52945;51.908;8.364;2023-04-24T10:12:51;0.75;;;0.70;;
66139;SDS011;52945;51.908;8.364;2023-04-24T10:15:53;1.20;;;1.10;;
66139;SDS011;52945;51.908;8.364;2023-04-24T10:18:54;1.50;;;0.80;;
66139;SDS011;52945;51.908;8.364;2023-04-24T10:21:55;1.02;;;0.93;;
66139;SDS011;52945;51.908;8.364;2023-04-24T10:24:57;1.42;;;1.00;;
66139;SDS011;52945;51.908;8.364;2023-04-24T10:27:59;2.47;;;1.30;;
66139;SDS011;52945;51.908;8.364;2023-04-24T10:31:01;1.25;;;1.10;;
66139;SDS011;52945;51.908;8.364;2023-04-24T10:34:02;2.35;;;1.52;;
66139;SDS011;52945;51.908;8.364;2023-04-24T10:37:04;1.98;;;1.23;;
66139;SDS011;52945;51.908;8.364;2023-04-24T10:40:05;1.27;;;1.13;;
66139;SDS011;52945;51.908;8.364;2023-04-24T10:43:08;2.03;;;1.13;;
66139;SDS011;52945;51.908;8.364;2023-04-24T10:46:16;1.30;;;1.20;;
66139;SDS011;52945;51.908;8.364;2023-04-24T10:49:27;1.13;;;1.00;;
66139;SDS011;52945;51.908;8.364;2023-04-24T10:52:48;1.67;;;1.10;;
66139;SDS011;52945;51.908;8.364;2023-04-24T10:55:51;1.15;;;1.00;;
66139;SDS011;52945;51.908;8.364;2023-04-24T10:58:57;0.80;;;0.80;;
66139;SDS011;52945;51.908;8.364;2023-04-24T11:01:58;1.50;;;0.85;;
66139;SDS011;52945;51.908;8.364;2023-04-24T11:04:58;1.00;;;0.93;;
66139;SDS011;52945;51.908;8.364;2023-04-24T11:08:10;0.98;;;0.88;;
66139;SDS011;52945;51.908;8.364;2023-04-24T11:14:15;1.33;;;1.23;;
66139;SDS011;52945;51.908;8.364;2023-04-24T11:17:26;1.67;;;1.40;;
66139;SDS011;52945;51.908;8.364;2023-04-24T11:20:34;2.38;;;1.42;;
66139;SDS011;52945;51.908;8.364;2023-04-24T11:23:38;3.33;;;1.50;;
66139;SDS011;52945;51.908;8.364;2023-04-24T11:26:40;4.65;;;2.28;;
66139;SDS011;52945;51.908;8.364;2023-04-24T11:32:55;2.22;;;1.45;;
66139;SDS011;52945;51.908;8.364;2023-04-24T11:36:05;3.95;;;1.83;;
66139;SDS011;52945;51.908;8.364;2023-04-24T11:39:06;2.65;;;1.75;;
66139;SDS011;52945;51.908;8.364;2023-04-24T11:42:07;2.10;;;1.55;;
66139;SDS011;52945;51.908;8.364;2023-04-24T11:45:15;1.95;;;1.33;;
66139;SDS011;52945;51.908;8.364;2023-04-24T11:48:20;2.50;;;1.50;;
66139;SDS011;52945;51.908;8.364;2023-04-24T11:51:22;2.38;;;1.30;;
66139;SDS011;52945;51.908;8.364;2023-04-24T11:54:25;3.33;;;1.50;;
66139;SDS011;52945;51.908;8.364;2023-04-24T11:57:25;2.17;;;1.52;;
66139;SDS011;52945;51.908;8.364;2023-04-24T12:00:29;2.00;;;1.30;;
66139;SDS011;52945;51.908;8.364;2023-04-24T12:03:33;2.97;;;1.58;;
66139;SDS011;52945;51.908;8.364;2023-04-24T12:06:34;2.05;;;1.17;;
66139;SDS011;52945;51.908;8.364;2023-04-24T12:09:47;2.55;;;1.20;;
66139;SDS011;52945;51.908;8.364;2023-04-24T12:12:55;1.50;;;1.17;;
66139;SDS011;52945;51.908;8.364;2023-04-24T12:15:57;2.25;;;1.42;;
66139;SDS011;52945;51.908;8.364;2023-04-24T12:18:57;3.28;;;1.30;;
66139;SDS011;52945;51.908;8.364;2023-04-24T12:22:02;2.63;;;1.50;;
66139;SDS011;52945;51.908;8.364;2023-04-24T12:25:05;2.00;;;1.40;;
66139;SDS011;52945;51.908;8.364;2023-04-24T12:31:07;3.08;;;1.52;;
66139;SDS011;52945;51.908;8.364;2023-04-24T12:34:20;2.47;;;1.48;;
66139;SDS011;52945;51.908;8.364;2023-04-24T12:37:25;5.80;;;1.98;;
66139;SDS011;52945;51.908;8.364;2023-04-24T12:40:26;4.03;;;2.00;;
66139;SDS011;52945;51.908;8.364;2023-04-24T12:43:28;3.28;;;1.75;;
66139;SDS011;52945;51.908;8.364;2023-04-24T12:46:29;3.45;;;2.10;;
66139;SDS011;52945;51.908;8.364;2023-04-24T12:49:30;4.85;;;2.13;;
66139;SDS011;52945;51.908;8.364;2023-04-24T12:52:31;4.20;;;1.70;;
66139;SDS011;52945;51.908;8.364;2023-04-24T12:55:32;3.80;;;1.55;;
66139;SDS011;52945;51.908;8.364;2023-04-24T12:58:33;5.10;;;2.50;;
66139;SDS011;52945;51.908;8.364;2023-04-24T13:01:34;4.57;;;2.45;;
66139;SDS011;52945;51.908;8.364;2023-04-24T13:04:34;6.45;;;2.50;;
66139;SDS011;52945;51.908;8.364;2023-04-24T13:07:35;4.70;;;2.60;;
66139;SDS011;52945;51.908;8.364;2023-04-24T13:10:36;7.68;;;2.90;;
66139;SDS011;52945;51.908;8.364;2023-04-24T13:13:36;7.15;;;3.03;;
66139;SDS011;52945;51.908;8.364;2023-04-24T13:16:37;5.47;;;2.75;;
66139;SDS011;52945;51.908;8.364;2023-04-24T13:19:38;7.45;;;3.03;;
66139;SDS011;52945;51.908;8.364;2023-04-24T13:22:40;6.57;;;3.28;;
66139;SDS011;52945;51.908;8.364;2023-04-24T13:25:41;7.40;;;2.95;;
66139;SDS011;52945;51.908;8.364;2023-04-24T13:28:42;6.60;;;3.22;;
66139;SDS011;52945;51.908;8.364;2023-04-24T13:31:42;10.50;;;3.15;;
66139;SDS011;52945;51.908;8.364;2023-04-24T13:34:43;7.90;;;2.92;;
66139;SDS011;52945;51.908;8.364;2023-04-24T13:37:44;9.15;;;2.75;;
66139;SDS011;52945;51.908;8.364;2023-04-24T13:40:44;11.95;;;3.38;;
66139;SDS011;52945;51.908;8.364;2023-04-24T13:43:45;8.68;;;3.30;;
66139;SDS011;52945;51.908;8.364;2023-04-24T13:46:46;5.72;;;3.55;;
66139;SDS011;52945;51.908;8.364;2023-04-24T13:49:48;23.80;;;4.10;;
66139;SDS011;52945;51.908;8.364;2023-04-24T13:52:49;9.95;;;3.60;;
66139;SDS011;52945;51.908;8.364;2023-04-24T13:55:50;9.07;;;3.55;;
66139;SDS011;52945;51.908;8.364;2023-04-24T13:58:51;6.80;;;3.13;;
66139;SDS011;52945;51.908;8.364;2023-04-24T14:01:51;8.32;;;3.33;;
66139;SDS011;52945;51.908;8.364;2023-04-24T14:04:52;11.77;;;4.05;;
66139;SDS011;52945;51.908;8.364;2023-04-24T14:07:52;9.55;;;3.50;;
66139;SDS011;52945;51.908;8.364;2023-04-24T14:10:53;7.32;;;3.58;;
66139;SDS011;52945;51.908;8.364;2023-04-24T14:13:54;7.45;;;3.03;;
66139;SDS011;52945;51.908;8.364;2023-04-24T14:16:56;8.75;;;3.35;;
66139;SDS011;52945;51.908;8.364;2023-04-24T14:19:57;9.48;;;3.25;;
66139;SDS011;52945;51.908;8.364;2023-04-24T14:22:59;4.32;;;2.40;;
66139;SDS011;52945;51.908;8.364;2023-04-24T14:26:00;6.95;;;2.25;;
66139;SDS011;52945;51.908;8.364;2023-04-24T14:29:01;4.38;;;2.20;;
66139;SDS011;52945;51.908;8.364;2023-04-24T14:32:01;7.25;;;2.95;;
66139;SDS011;52945;51.908;8.364;2023-04-24T14:35:02;5.68;;;2.40;;
66139;SDS011;52945;51.908;8.364;2023-04-24T14:38:03;6.72;;;2.10;;
66139;SDS011;52945;51.908;8.364;2023-04-24T14:41:03;5.60;;;2.50;;
66139;SDS011;52945;51.908;8.364;2023-04-24T14:44:10;5.57;;;2.08;;
66139;SDS011;52945;51.908;8.364;2023-04-24T14:47:10;5.00;;;2.20;;
66139;SDS011;52945;51.908;8.364;2023-04-24T14:50:11;4.68;;;2.17;;
66139;SDS011;52945;51.908;8.364;2023-04-24T14:53:12;5.63;;;1.60;;
66139;SDS011;52945;51.908;8.364;2023-04-24T14:56:15;4.10;;;1.83;;
66139;SDS011;52945;51.908;8.364;2023-04-24T14:59:16;3.53;;;1.92;;
66139;SDS011;52945;51.908;8.364;2023-04-24T15:02:17;2.63;;;1.70;;
66139;SDS011;52945;51.908;8.364;2023-04-24T15:05:18;4.40;;;1.70;;
66139;SDS011;52945;51.908;8.364;2023-04-24T15:08:19;4.20;;;1.92;;
66139;SDS011;52945;51.908;8.364;2023-04-24T15:11:20;4.07;;;1.63;;
66139;SDS011;52945;51.908;8.364;2023-04-24T15:14:20;3.97;;;1.58;;
66139;SDS011;52945;51.908;8.364;2023-04-24T15:17:25;2.13;;;1.38;;
66139;SDS011;52945;51.908;8.364;2023-04-24T15:20:26;2.00;;;1.17;;
66139;SDS011;52945;51.908;8.364;2023-04-24T15:23:27;3.78;;;1.40;;
66139;SDS011;52945;51.908;8.364;2023-04-24T15:26:28;2.75;;;1.38;;
66139;SDS011;52945;51.908;8.364;2023-04-24T15:29:28;1.58;;;1.30;;
66139;SDS011;52945;51.908;8.364;2023-04-24T15:32:29;2.30;;;1.60;;
66139;SDS011;52945;51.908;8.364;2023-04-24T15:35:33;3.63;;;1.50;;
66139;SDS011;52945;51.908;8.364;2023-04-24T15:38:34;2.33;;;1.45;;
66139;SDS011;52945;51.908;8.364;2023-04-24T15:41:35;3.00;;;1.52;;
66139;SDS011;52945;51.908;8.364;2023-04-24T15:44:36;2.67;;;1.45;;
66139;SDS011;52945;51.908;8.364;2023-04-24T15:47:40;4.35;;;1.60;;
66139;SDS011;52945;51.908;8.364;2023-04-24T15:50:41;3.10;;;1.30;;
66139;SDS011;52945;51.908;8.364;2023-04-24T15:53:42;2.28;;;1.50;;
66139;SDS011;52945;51.908;8.364;2023-04-24T15:56:42;3.92;;;1.42;;
66139;SDS011;52945;51.908;8.364;2023-04-24T16:02:44;4.28;;;1.38;;
66139;SDS011;52945;51.908;8.364;2023-04-24T16:05:45;2.47;;;1.42;;
66139;SDS011;52945;51.908;8.364;2023-04-24T16:08:46;4.30;;;1.73;;
66139;SDS011;52945;51.908;8.364;2023-04-24T16:11:46;2.72;;;1.65;;
66139;SDS011;52945;51.908;8.364;2023-04-24T16:14:47;4.05;;;1.70;;
66139;SDS011;52945;51.908;8.364;2023-04-24T16:17:48;2.97;;;1.38;;
66139;SDS011;52945;51.908;8.364;2023-04-24T16:20:49;2.67;;;1.50;;
66139;SDS011;52945;51.908;8.364;2023-04-24T16:23:50;6.88;;;1.60;;
66139;SDS011;52945;51.908;8.364;2023-04-24T16:26:51;1.98;;;1.38;;
66139;SDS011;52945;51.908;8.364;2023-04-24T16:29:52;6.85;;;1.60;;
66139;SDS011;52945;51.908;8.364;2023-04-24T16:32:52;2.30;;;1.50;;
66139;SDS011;52945;51.908;8.364;2023-04-24T16:35:54;4.38;;;1.42;;
66139;SDS011;52945;51.908;8.364;2023-04-24T16:41:55;2.92;;;1.20;;
66139;SDS011;52945;51.908;8.364;2023-04-24T16:44:56;2.35;;;1.42;;
66139;SDS011;52945;51.908;8.364;2023-04-24T16:47:57;6.07;;;1.38;;
66139;SDS011;52945;51.908;8.364;2023-04-24T16:50:58;3.28;;;1.30;;
66139;SDS011;52945;51.908;8.364;2023-04-24T16:53:58;2.85;;;1.20;;
66139;SDS011;52945;51.908;8.364;2023-04-24T16:56:59;2.55;;;1.40;;
66139;SDS011;52945;51.908;8.364;2023-04-24T17:00:00;2.65;;;1.40;;
66139;SDS011;52945;51.908;8.364;2023-04-24T17:03:00;3.22;;;1.40;;
66139;SDS011;52945;51.908;8.364;2023-04-24T17:06:01;4.90;;;1.50;;
66139;SDS011;52945;51.908;8.364;2023-04-24T17:09:02;1.83;;;1.35;;
66139;SDS011;52945;51.908;8.364;2023-04-24T17:12:02;2.75;;;1.70;;
66139;SDS011;52945;51.908;8.364;2023-04-24T17:15:03;3.30;;;1.27;;
66139;SDS011;52945;51.908;8.364;2023-04-24T17:18:04;2.78;;;1.42;;
66139;SDS011;52945;51.908;8.364;2023-04-24T17:21:05;2.00;;;1.42;;
66139;SDS011;52945;51.908;8.364;2023-04-24T17:24:06;3.83;;;1.45;;
66139;SDS011;52945;51.908;8.364;2023-04-24T17:27:06;4.25;;;1.42;;
66139;SDS011;52945;51.908;8.364;2023-04-24T17:30:07;5.70;;;1.40;;
66139;SDS011;52945;51.908;8.364;2023-04-24T17:33:08;4.75;;;1.80;;
66139;SDS011;52945;51.908;8.364;2023-04-24T17:36:09;5.68;;;1.52;;
66139;SDS011;52945;51.908;8.364;2023-04-24T17:39:09;4.78;;;1.60;;
66139;SDS011;52945;51.908;8.364;2023-04-24T17:42:10;2.88;;;1.50;;
66139;SDS011;52945;51.908;8.364;2023-04-24T17:45:11;8.32;;;1.95;;
66139;SDS011;52945;51.908;8.364;2023-04-24T17:48:12;3.22;;;1.30;;
66139;SDS011;52945;51.908;8.364;2023-04-24T17:54:14;7.88;;;1.52;;
66139;SDS011;52945;51.908;8.364;2023-04-24T17:57:14;2.97;;;1.40;;
66139;SDS011;52945;51.908;8.364;2023-04-24T18:00:15;3.92;;;1.58;;
66139;SDS011;52945;51.908;8.364;2023-04-24T18:03:16;4.00;;;1.73;;
66139;SDS011;52945;51.908;8.364;2023-04-24T18:06:16;2.90;;;1.40;;
66139;SDS011;52945;51.908;8.364;2023-04-24T18:09:17;4.90;;;1.70;;
66139;SDS011;52945;51.908;8.364;2023-04-24T18:12:19;2.50;;;1.30;;
66139;SDS011;52945;51.908;8.364;2023-04-24T18:15:20;4.70;;;1.35;;
66139;SDS011;52945;51.908;8.364;2023-04-24T18:18:21;2.42;;;1.63;;
66139;SDS011;52945;51.908;8.364;2023-04-24T18:21:21;4.88;;;1.30;;
66139;SDS011;52945;51.908;8.364;2023-04-24T18:24:23;5.38;;;1.63;;
66139;SDS011;52945;51.908;8.364;2023-04-24T18:27:24;4.15;;;1.42;;
66139;SDS011;52945;51.908;8.364;2023-04-24T18:30:28;3.53;;;1.42;;
66139;SDS011;52945;51.908;8.364;2023-04-24T18:33:30;3.95;;;1.42;;
66139;SDS011;52945;51.908;8.364;2023-04-24T18:36:30;2.58;;;1.58;;
66139;SDS011;52945;51.908;8.364;2023-04-24T18:39:32;3.58;;;1.67;;
66139;SDS011;52945;51.908;8.364;2023-04-24T18:42:32;1.60;;;1.27;;
66139;SDS011;52945;51.908;8.364;2023-04-24T18:45:33;3.75;;;1.75;;
66139;SDS011;52945;51.908;8.364;2023-04-24T18:48:33;2.45;;;1.50;;